Waddington, New York
Current Conditions -  °F | °C
As of 1:53 PM on Thursday 23 Oct 2014 (Local Time) from KMSS Reporting Station
Overcast Overcast  
Wind Chill: 50°   Ceiling: 2300
Heat Index: 50°   Visibility: 10mi
Dew Point: 39°   Wind: 15mph
Humidity: 66%   Direction: 50°NE
Pressure: 30.02"   Gusts: NA
Location:  44.86°N, 75.2°W
Report Text: KMSS 231753Z AUTO 05013KT 10SM OVC023 10/04 A3002 RMK AO2 SLP169 T01000039 10111 20078 57016
Loading
Personal Weather Stations






























Interactive Weather Map
Tropical Storm Tracking
New forecast layout! Learn more

10-Day Weather Forecast

Advertisements
Track Severe Weather on mobile